Time;durP1;ratioP1;P1;durP2;ratioP2;P2;SDS_P1;SDS_P2;PMS_P1;PMS_P2;Temp;Humidity;BMP_temperature;BMP_pressure;BME280_temperature;BME280_humidity;BME280_pressure;Samples;Min_cycle;Max_cycle;Signal;HPM_P1;HPM_P2
2021/03/09 00:00:15;;;;;;;8.73;4.40;;;-0.60;55.70;;;;;;5075154;28;20044;-87
2021/03/09 00:02:42;;;;;;;6.22;3.83;;;-0.60;55.80;;;;;;5075180;28;20501;-87
2021/03/09 00:05:08;;;;;;;8.38;3.67;;;-0.60;55.90;;;;;;5075356;28;20343;-86
2021/03/09 00:07:34;;;;;;;8.60;3.95;;;-0.60;56.00;;;;;;5075321;28;20024;-86
2021/03/09 00:10:00;;;;;;;9.65;4.43;;;-0.70;56.00;;;;;;5076201;28;20028;-87
2021/03/09 00:12:27;;;;;;;7.68;4.10;;;-0.70;56.00;;;;;;5075343;28;20100;-86
2021/03/09 00:14:53;;;;;;;9.32;4.93;;;-0.70;56.10;;;;;;5074001;28;20020;-87
2021/03/09 00:17:21;;;;;;;8.00;4.03;;;-0.80;56.10;;;;;;5073909;28;20323;-87
2021/03/09 00:19:47;;;;;;;5.88;3.95;;;-0.80;56.30;;;;;;5075282;28;20025;-87
2021/03/09 00:22:13;;;;;;;8.13;4.28;;;-0.80;56.40;;;;;;5074705;28;20365;-86
2021/03/09 00:24:38;;;;;;;7.30;4.05;;;-0.80;56.50;;;;;;5075068;28;20020;-87
2021/03/09 00:27:04;;;;;;;5.57;3.55;;;-0.90;56.50;;;;;;5074296;28;20466;-86
2021/03/09 00:29:30;;;;;;;8.35;3.78;;;-0.90;56.50;;;;;;5075200;28;20072;-86
2021/03/09 00:31:56;;;;;;;7.72;3.70;;;-0.90;56.50;;;;;;5074865;28;20089;-86
2021/03/09 00:34:21;;;;;;;7.85;4.05;;;-0.90;56.60;;;;;;5073389;28;20047;-87
2021/03/09 00:36:47;;;;;;;6.40;3.80;;;-0.90;56.70;;;;;;5074770;28;20118;-86
2021/03/09 00:39:13;;;;;;;11.07;4.68;;;-1.00;56.70;;;;;;5074727;28;20361;-86
2021/03/09 00:41:39;;;;;;;9.25;5.10;;;-1.00;56.70;;;;;;5073883;28;20021;-87
2021/03/09 00:44:05;;;;;;;11.10;4.95;;;-1.00;56.80;;;;;;5065979;28;20030;-86
2021/03/09 00:46:30;;;;;;;8.27;4.30;;;-1.10;56.90;;;;;;5056839;28;20516;-87
2021/03/09 00:48:56;;;;;;;8.73;4.13;;;-1.10;57.00;;;;;;5057315;28;20029;-86
2021/03/09 00:51:22;;;;;;;7.07;4.20;;;-1.10;56.90;;;;;;5061172;28;20021;-86
2021/03/09 00:53:47;;;;;;;8.82;4.32;;;-1.20;57.00;;;;;;5055887;28;20017;-86
2021/03/09 00:56:13;;;;;;;7.25;4.50;;;-1.20;57.10;;;;;;5064024;28;20032;-86
2021/03/09 00:58:39;;;;;;;8.20;4.75;;;-1.20;57.10;;;;;;5065909;28;20044;-85
2021/03/09 01:01:04;;;;;;;7.93;4.40;;;-1.20;57.20;;;;;;5072744;28;20056;-86
2021/03/09 01:03:30;;;;;;;10.52;4.60;;;-1.20;57.20;;;;;;5054311;28;20459;-87
2021/03/09 01:05:56;;;;;;;7.63;4.22;;;-1.20;57.20;;;;;;5054445;28;20029;-86
2021/03/09 01:08:21;;;;;;;7.00;4.05;;;-1.20;57.30;;;;;;5069875;28;20032;-86
2021/03/09 01:10:47;;;;;;;6.78;4.10;;;-1.20;57.20;;;;;;5053102;28;20366;-85
2021/03/09 01:13:13;;;;;;;6.75;4.32;;;-1.20;57.20;;;;;;5053990;28;20095;-86
2021/03/09 01:15:39;;;;;;;7.43;4.03;;;-1.20;57.20;;;;;;5054017;28;20029;-85
2021/03/09 01:18:05;;;;;;;8.95;4.75;;;-1.20;57.20;;;;;;5054158;28;20078;-85
2021/03/09 01:20:31;;;;;;;6.47;3.95;;;-1.30;57.10;;;;;;5070207;28;20099;-85
2021/03/09 01:22:56;;;;;;;5.90;4.15;;;-1.30;57.20;;;;;;5062127;28;20502;-86
2021/03/09 01:25:22;;;;;;;7.05;3.90;;;-1.30;57.20;;;;;;5073849;28;20028;-86
2021/03/09 01:27:48;;;;;;;10.55;4.85;;;-1.20;57.20;;;;;;5074269;28;20021;-85
2021/03/09 01:30:16;;;;;;;8.20;4.20;;;-1.20;57.10;;;;;;5074032;28;20024;-86
2021/03/09 01:32:42;;;;;;;10.15;4.25;;;-1.30;57.10;;;;;;5074429;28;20021;-86
2021/03/09 01:35:08;;;;;;;5.90;3.53;;;-1.30;57.10;;;;;;5073022;28;20031;-85
2021/03/09 01:37:34;;;;;;;8.90;4.30;;;-1.30;57.00;;;;;;5073727;28;20020;-85
2021/03/09 01:39:59;;;;;;;8.18;4.57;;;-1.30;57.00;;;;;;5073720;28;20474;-86
2021/03/09 01:42:25;;;;;;;7.63;4.03;;;-1.30;57.10;;;;;;5073598;28;20028;-86
2021/03/09 01:44:51;;;;;;;8.23;4.25;;;-1.30;57.20;;;;;;5067200;28;20020;-86
2021/03/09 01:47:19;;;;;;;9.50;4.65;;;-1.20;57.20;;;;;;5061515;28;20104;-86
2021/03/09 01:49:45;;;;;;;7.95;4.30;;;-1.10;57.10;;;;;;5065504;28;20095;-86
2021/03/09 01:52:11;;;;;;;6.43;4.18;;;-1.10;56.90;;;;;;5060664;28;20029;-87
2021/03/09 01:54:39;;;;;;;6.05;4.15;;;-1.10;56.90;;;;;;5061706;28;20028;-86
2021/03/09 01:57:06;;;;;;;9.02;4.22;;;-1.00;56.80;;;;;;5062753;28;20016;-86
2021/03/09 01:59:33;;;;;;;5.85;3.83;;;-1.00;56.70;;;;;;5061696;28;20047;-86
2021/03/09 02:01:59;;;;;;;7.45;4.45;;;-1.10;56.50;;;;;;5065715;28;20017;-86
2021/03/09 02:04:25;;;;;;;8.73;4.82;;;-1.10;56.40;;;;;;5065499;28;20021;-88
2021/03/09 02:06:52;;;;;;;8.43;4.63;;;-1.10;56.40;;;;;;5067810;28;20074;-86
2021/03/09 02:09:19;;;;;;;9.27;4.25;;;-1.10;56.30;;;;;;5065015;28;20028;-86
2021/03/09 02:12:00;;;;;;;13.27;4.50;;;-1.10;56.40;;;;;;5061258;28;20048;-86
2021/03/09 02:14:50;;;;;;;5.65;4.00;;;-1.10;56.40;;;;;;5065369;28;20041;-86
2021/03/09 02:17:29;;;;;;;7.18;3.83;;;-1.00;56.40;;;;;;5064477;28;20075;-86
2021/03/09 02:20:06;;;;;;;8.20;4.38;;;-1.00;56.20;;;;;;5067807;28;20315;-86
2021/03/09 02:23:17;;;;;;;7.82;3.90;;;-1.00;56.00;;;;;;5067136;28;20024;-86
2021/03/09 02:26:03;;;;;;;9.13;4.53;;;-1.00;55.80;;;;;;5066735;28;20037;-87
2021/03/09 02:28:37;;;;;;;9.07;4.20;;;-1.00;55.80;;;;;;5065675;28;20334;-86
2021/03/09 02:31:06;;;;;;;8.63;4.40;;;-1.10;55.70;;;;;;5065017;28;20020;-87
2021/03/09 02:33:49;;;;;;;11.10;4.63;;;-1.20;55.80;;;;;;5066516;28;20013;-87
2021/03/09 02:36:20;;;;;;;13.85;5.55;;;-1.20;56.00;;;;;;5066387;28;20017;-86
2021/03/09 02:39:04;;;;;;;8.57;4.68;;;-1.30;56.10;;;;;;5065058;28;20017;-86
2021/03/09 02:41:31;;;;;;;10.30;5.05;;;-1.30;56.10;;;;;;5065511;28;20052;-87
2021/03/09 02:43:58;;;;;;;9.05;4.50;;;-1.30;56.10;;;;;;5073091;28;20017;-86
2021/03/09 02:46:28;;;;;;;10.60;4.93;;;-1.30;56.20;;;;;;5064484;28;20447;-87
2021/03/09 02:48:55;;;;;;;10.32;5.45;;;-1.30;56.20;;;;;;5072776;28;20020;-87
2021/03/09 02:51:26;;;;;;;14.88;6.32;;;-1.30;56.30;;;;;;5066364;28;20112;-87
2021/03/09 02:53:55;;;;;;;17.88;6.82;;;-1.40;56.30;;;;;;5066670;28;20384;-87
2021/03/09 02:56:22;;;;;;;12.50;5.25;;;-1.40;56.30;;;;;;5064779;28;20040;-88
2021/03/09 02:58:52;;;;;;;16.08;6.20;;;-1.40;56.30;;;;;;5058211;28;20070;-87
2021/03/09 03:01:19;;;;;;;16.50;6.80;;;-1.40;56.30;;;;;;5050426;28;20021;-86
2021/03/09 03:03:47;;;;;;;12.48;5.20;;;-1.50;56.40;;;;;;5051422;28;20111;-87
2021/03/09 03:06:14;;;;;;;10.43;5.10;;;-1.50;56.50;;;;;;5065191;28;20071;-87
2021/03/09 03:08:41;;;;;;;10.20;5.18;;;-1.50;56.50;;;;;;5068307;28;20109;-82
2021/03/09 03:11:08;;;;;;;10.77;4.93;;;-1.50;56.50;;;;;;5062161;28;20059;-86
2021/03/09 03:13:35;;;;;;;11.55;5.05;;;-1.50;56.70;;;;;;5069021;28;20033;-87
2021/03/09 03:16:02;;;;;;;7.53;4.55;;;-1.50;56.70;;;;;;5064578;28;20037;-86
2021/03/09 03:18:34;;;;;;;11.75;5.38;;;-1.50;56.80;;;;;;5064963;28;20362;-87
2021/03/09 03:21:02;;;;;;;9.90;6.00;;;-1.50;56.90;;;;;;5059288;28;20070;-86
2021/03/09 03:23:28;;;;;;;14.95;5.78;;;-1.40;57.00;;;;;;5064679;28;20021;-86
2021/03/09 03:25:56;;;;;;;14.10;6.38;;;-1.40;57.00;;;;;;5059022;28;20439;-86
2021/03/09 03:28:22;;;;;;;12.82;6.07;;;-1.30;57.10;;;;;;5064483;28;20024;-87
2021/03/09 03:30:49;;;;;;;12.07;5.65;;;-1.20;57.00;;;;;;5065847;28;20067;-88
2021/03/09 03:33:15;;;;;;;13.38;6.00;;;-1.00;57.00;;;;;;5065399;28;20020;-87
2021/03/09 03:35:41;;;;;;;9.60;5.45;;;-0.90;56.80;;;;;;5063801;28;20028;-87
2021/03/09 03:38:07;;;;;;;9.57;4.95;;;-0.80;56.80;;;;;;5066600;28;20498;-86
2021/03/09 03:40:33;;;;;;;12.40;5.57;;;-0.70;56.70;;;;;;5069607;28;20017;-87
2021/03/09 03:43:00;;;;;;;10.45;5.50;;;-0.60;56.50;;;;;;5066861;28;20120;-87
2021/03/09 03:45:25;;;;;;;9.98;5.05;;;-0.50;56.20;;;;;;5065490;28;20048;-87
2021/03/09 03:47:57;;;;;;;8.35;3.90;;;-0.40;56.20;;;;;;5063806;28;20049;-86
2021/03/09 03:50:23;;;;;;;7.22;5.15;;;-0.30;56.10;;;;;;5062761;28;20115;-86
2021/03/09 03:53:08;;;;;;;11.50;4.60;;;-0.30;55.90;;;;;;5059825;28;20516;-86
2021/03/09 03:56:02;;;;;;;8.23;5.13;;;-0.20;55.70;;;;;;5065878;28;20032;-86
2021/03/09 03:58:34;;;;;;;8.52;4.90;;;-0.20;55.60;;;;;;5064468;28;20021;-86
2021/03/09 04:01:01;;;;;;;10.63;5.22;;;-0.10;55.40;;;;;;5065205;28;20013;-86
2021/03/09 04:03:30;;;;;;;9.30;5.00;;;-0.10;55.40;;;;;;5069926;28;20021;-86
2021/03/09 04:05:58;;;;;;;9.68;5.25;;;0.00;55.40;;;;;;5074132;28;20111;-86
2021/03/09 04:08:24;;;;;;;8.38;5.22;;;0.00;55.90;;;;;;5071309;28;20085;-86
2021/03/09 04:10:52;;;;;;;7.53;4.50;;;0.00;55.10;;;;;;5071076;28;20040;-85
2021/03/09 04:13:19;;;;;;;8.70;4.60;;;0.00;55.00;;;;;;5073096;28;20125;-86
2021/03/09 04:15:45;;;;;;;8.25;4.93;;;0.00;55.00;;;;;;5068867;28;20031;-87
2021/03/09 04:18:14;;;;;;;5.97;4.45;;;0.00;55.10;;;;;;5059144;28;20024;-86
2021/03/09 04:20:42;;;;;;;8.35;4.75;;;0.10;55.10;;;;;;5056285;28;20444;-86
2021/03/09 04:23:08;;;;;;;9.07;4.72;;;0.10;55.10;;;;;;5067687;28;20025;-86
2021/03/09 04:25:35;;;;;;;8.13;4.50;;;0.10;55.00;;;;;;5070169;28;20032;-86
2021/03/09 04:28:02;;;;;;;8.05;3.95;;;0.10;55.00;;;;;;5071678;28;20456;-87
2021/03/09 04:30:31;;;;;;;9.05;5.10;;;0.20;55.10;;;;;;5063712;28;20017;-86
2021/03/09 04:32:56;;;;;;;10.00;5.00;;;0.20;55.00;;;;;;5070672;28;20025;-85
2021/03/09 04:35:22;;;;;;;12.45;5.75;;;0.20;54.90;;;;;;5070580;28;20020;-86
2021/03/09 04:37:49;;;;;;;9.30;5.05;;;0.20;54.90;;;;;;5068185;28;20025;-87
2021/03/09 04:40:15;;;;;;;7.50;4.22;;;0.30;54.90;;;;;;5069400;28;20024;-86
2021/03/09 04:42:41;;;;;;;8.10;4.55;;;0.30;54.80;;;;;;5070814;28;20021;-85
2021/03/09 04:45:07;;;;;;;10.95;5.10;;;0.30;54.80;;;;;;5070778;28;20040;-88
2021/03/09 04:47:34;;;;;;;8.00;4.55;;;0.40;54.80;;;;;;5081084;28;20031;-87
2021/03/09 04:50:00;;;;;;;8.30;4.80;;;0.40;54.80;;;;;;5082339;28;20017;-85
2021/03/09 04:52:26;;;;;;;8.70;4.78;;;0.40;54.80;;;;;;5079845;28;20021;-86
2021/03/09 04:54:56;;;;;;;12.13;4.72;;;0.40;54.70;;;;;;5083476;28;20024;-86
2021/03/09 04:57:36;;;;;;;9.50;4.97;;;0.50;54.70;;;;;;5079304;28;20420;-86
2021/03/09 05:00:05;;;;;;;8.45;4.80;;;0.50;54.50;;;;;;5078530;28;20033;-86
2021/03/09 05:02:30;;;;;;;11.35;5.80;;;0.50;54.50;;;;;;5077837;28;20028;-86
2021/03/09 05:04:56;;;;;;;20.13;7.05;;;0.60;54.60;;;;;;5076584;28;20032;-88
2021/03/09 05:07:22;;;;;;;10.00;4.85;;;0.60;54.50;;;;;;5080862;28;20146;-86
2021/03/09 05:09:47;;;;;;;11.35;5.10;;;0.60;54.50;;;;;;5077408;28;20035;-87
2021/03/09 05:12:13;;;;;;;11.07;5.32;;;0.70;54.40;;;;;;5076846;28;20031;-87
2021/03/09 05:14:39;;;;;;;11.35;5.50;;;0.70;54.40;;;;;;5073879;28;20055;-87
2021/03/09 05:17:04;;;;;;;10.50;5.05;;;0.80;54.40;;;;;;5072421;28;20493;-87
2021/03/09 05:19:30;;;;;;;14.80;6.18;;;0.80;54.30;;;;;;5073144;28;20024;-87
2021/03/09 05:21:56;;;;;;;9.45;5.47;;;0.90;54.50;;;;;;5084336;28;20025;-86
2021/03/09 05:24:21;;;;;;;12.23;5.85;;;1.00;54.30;;;;;;5081738;28;20119;-87
2021/03/09 05:26:47;;;;;;;17.45;6.07;;;1.10;54.30;;;;;;5071368;28;20036;-87
2021/03/09 05:29:13;;;;;;;12.13;5.07;;;1.10;54.30;;;;;;5061830;28;20462;-87
2021/03/09 05:31:38;;;;;;;12.43;5.93;;;1.30;54.10;;;;;;5063661;28;20453;-87
2021/03/09 05:34:04;;;;;;;11.25;5.78;;;1.40;54.10;;;;;;5073992;28;20020;-86
2021/03/09 05:36:32;;;;;;;11.35;5.65;;;1.50;53.90;;;;;;5071599;28;20028;-87
2021/03/09 05:38:58;;;;;;;7.38;5.32;;;1.60;53.60;;;;;;5076303;28;20027;-87
2021/03/09 05:41:25;;;;;;;14.77;5.97;;;1.70;53.50;;;;;;5073724;28;20095;-90
2021/03/09 05:43:52;;;;;;;13.18;4.93;;;1.70;53.20;;;;;;5073622;28;20362;-89
2021/03/09 05:46:18;;;;;;;11.57;6.10;;;1.80;53.20;;;;;;5073681;28;20028;-87
2021/03/09 05:48:43;;;;;;;9.00;4.88;;;1.90;53.30;;;;;;5073628;28;20027;-86
2021/03/09 05:51:10;;;;;;;9.15;5.15;;;1.90;53.00;;;;;;5080142;28;20016;-86
2021/03/09 05:53:35;;;;;;;12.60;6.13;;;2.00;52.80;;;;;;5088735;28;20066;-87
2021/03/09 05:56:04;;;;;;;11.27;5.50;;;2.10;52.70;;;;;;5077991;28;20096;-86
2021/03/09 05:58:31;;;;;;;9.40;4.97;;;2.20;52.50;;;;;;5061634;28;20100;-88
2021/03/09 06:00:57;;;;;;;16.10;6.15;;;2.20;52.40;;;;;;5056488;28;20028;-88
2021/03/09 06:03:25;;;;;;;12.30;4.85;;;2.30;52.40;;;;;;5052682;28;20029;-87
2021/03/09 06:05:52;;;;;;;11.10;4.90;;;2.40;52.30;;;;;;5053163;28;20025;-88
2021/03/09 06:08:17;;;;;;;10.20;4.32;;;2.50;52.10;;;;;;5053117;28;20347;-88
2021/03/09 06:10:44;;;;;;;12.75;4.13;;;2.60;51.90;;;;;;5051953;28;20018;-87
2021/03/09 06:13:29;;;;;;;6.07;4.13;;;2.70;51.90;;;;;;5052325;28;20048;-87
2021/03/09 06:15:55;;;;;;;6.85;4.20;;;2.80;51.60;;;;;;5053068;28;20090;-88
2021/03/09 06:18:25;;;;;;;6.75;3.80;;;3.00;51.50;;;;;;5053077;28;20024;-88
2021/03/09 06:21:07;;;;;;;7.05;3.92;;;3.10;51.20;;;;;;5053355;28;20028;-87
2021/03/09 06:23:34;;;;;;;9.45;4.20;;;3.20;50.80;;;;;;5053060;28;20063;-86
2021/03/09 06:26:00;;;;;;;8.23;4.65;;;3.30;50.90;;;;;;5053442;28;20056;-87
2021/03/09 06:28:30;;;;;;;6.38;3.83;;;3.40;50.70;;;;;;5055155;28;20359;-86
2021/03/09 06:30:59;;;;;;;6.47;3.45;;;3.60;50.50;;;;;;5052926;28;20021;-83
2021/03/09 06:33:29;;;;;;;8.40;4.03;;;3.60;50.20;;;;;;5053550;28;20065;-88
2021/03/09 06:35:57;;;;;;;5.43;3.53;;;3.70;50.00;;;;;;5053401;28;20336;-87
2021/03/09 06:38:27;;;;;;;8.32;3.72;;;3.70;49.80;;;;;;5053166;28;20017;-88
2021/03/09 06:41:15;;;;;;;8.45;3.83;;;3.70;49.70;;;;;;5035205;28;20025;-88
2021/03/09 06:44:01;;;;;;;9.60;4.30;;;3.80;49.60;;;;;;5054070;28;20031;-87
2021/03/09 06:46:28;;;;;;;8.52;4.00;;;3.90;49.50;;;;;;5060266;28;20516;-86
2021/03/09 06:48:55;;;;;;;4.82;3.55;;;4.00;49.40;;;;;;5058649;28;20025;-86
2021/03/09 06:51:36;;;;;;;8.90;3.40;;;4.20;49.30;;;;;;5066198;28;20013;-88
2021/03/09 06:54:02;;;;;;;8.20;3.28;;;4.20;48.80;;;;;;5064649;28;20021;-87
2021/03/09 06:56:28;;;;;;;6.15;3.45;;;4.30;48.60;;;;;;5065280;28;20043;-87
2021/03/09 06:58:54;;;;;;;8.23;4.35;;;4.30;48.40;;;;;;5066041;28;20040;-87
2021/03/09 07:01:20;;;;;;;11.55;4.18;;;4.40;48.30;;;;;;5065950;28;20462;-87
2021/03/09 07:03:46;;;;;;;10.32;3.85;;;4.50;48.20;;;;;;5064936;28;20021;-88
2021/03/09 07:06:11;;;;;;;7.45;3.88;;;4.60;48.10;;;;;;5066923;28;20041;-87
2021/03/09 07:08:37;;;;;;;8.93;3.28;;;4.70;47.90;;;;;;5063786;28;20017;-87
2021/03/09 07:11:03;;;;;;;8.35;3.38;;;4.80;47.70;;;;;;5065739;28;20373;-87
2021/03/09 07:13:29;;;;;;;7.00;3.17;;;4.90;47.50;;;;;;5063571;28;20037;-86
2021/03/09 07:15:56;;;;;;;4.28;2.95;;;4.90;46.80;;;;;;5058486;28;20454;-88
2021/03/09 07:18:27;;;;;;;6.97;3.03;;;4.90;46.20;;;;;;5056530;28;20017;-88
2021/03/09 07:20:54;;;;;;;12.90;6.15;;;4.70;45.90;;;;;;5056655;28;20027;-87
2021/03/09 07:23:24;;;;;;;27.65;10.48;;;4.70;46.10;;;;;;5056927;28;20024;-87
2021/03/09 07:25:55;;;;;;;24.92;9.60;;;4.70;46.10;;;;;;5055663;28;20471;-87
2021/03/09 07:28:23;;;;;;;15.55;6.53;;;4.60;46.10;;;;;;5056350;28;20029;-87
2021/03/09 07:30:51;;;;;;;15.68;5.57;;;4.60;45.90;;;;;;5055992;28;20048;-86
2021/03/09 07:33:18;;;;;;;11.88;5.25;;;4.60;45.90;;;;;;5056565;28;20025;-87
2021/03/09 07:35:46;;;;;;;6.30;3.80;;;4.50;45.90;;;;;;5057593;28;20034;-86
2021/03/09 07:38:13;;;;;;;4.03;3.00;;;4.30;45.90;;;;;;5056958;28;20102;-87
2021/03/09 07:40:39;;;;;;;5.22;3.10;;;4.20;45.80;;;;;;5056459;28;20167;-87
2021/03/09 07:43:05;;;;;;;4.32;3.30;;;4.10;45.80;;;;;;5055983;28;20056;-87
2021/03/09 07:45:36;;;;;;;4.63;3.00;;;3.90;45.90;;;;;;5056523;28;20123;-86
2021/03/09 07:48:17;;;;;;;4.47;2.92;;;3.90;46.10;;;;;;5055725;28;20047;-88
2021/03/09 07:50:45;;;;;;;6.38;2.90;;;3.80;46.00;;;;;;5055904;28;20024;-87
2021/03/09 07:53:13;;;;;;;6.65;3.35;;;3.70;46.60;;;;;;5055859;28;20021;-88
2021/03/09 07:55:46;;;;;;;7.13;3.95;;;3.50;45.90;;;;;;5055509;28;20025;-87
2021/03/09 07:58:16;;;;;;;5.55;3.67;;;3.40;46.20;;;;;;5061833;28;20358;-87
2021/03/09 08:00:48;;;;;;;4.53;3.75;;;3.40;46.40;;;;;;5066631;28;20028;-87
2021/03/09 08:03:30;;;;;;;6.00;3.70;;;3.40;46.70;;;;;;5057137;28;20494;-87
2021/03/09 08:06:03;;;;;;;6.80;3.97;;;3.30;46.90;;;;;;5062838;28;20024;-88
2021/03/09 08:08:49;;;;;;;5.45;4.05;;;3.30;47.20;;;;;;5069520;28;20029;-87
2021/03/09 08:11:27;;;;;;;6.00;3.83;;;3.40;47.90;;;;;;5060973;28;20332;-87
2021/03/09 08:14:05;;;;;;;5.38;3.63;;;3.60;48.30;;;;;;5059489;28;20047;-88
2021/03/09 08:16:43;;;;;;;7.20;4.03;;;4.00;48.70;;;;;;5065707;28;20029;-87
2021/03/09 08:19:13;;;;;;;6.28;4.25;;;4.40;48.20;;;;;;5066491;28;20062;-87
2021/03/09 08:21:39;;;;;;;8.32;4.40;;;4.70;47.40;;;;;;5062381;28;20040;-88
2021/03/09 08:24:05;;;;;;;8.40;3.90;;;4.80;46.80;;;;;;5063229;28;20184;-86
2021/03/09 08:26:31;;;;;;;3.97;3.20;;;4.80;46.50;;;;;;5062527;28;20093;-88
2021/03/09 08:28:57;;;;;;;5.07;3.13;;;4.70;46.20;;;;;;5062161;28;20091;-87
2021/03/09 08:31:28;;;;;;;4.65;2.90;;;4.70;46.20;;;;;;5063106;28;20098;-87
2021/03/09 08:34:06;;;;;;;4.68;3.05;;;4.70;46.30;;;;;;5062478;28;20020;-89
2021/03/09 08:36:36;;;;;;;7.35;3.75;;;4.80;46.50;;;;;;5065731;28;20036;-87
2021/03/09 08:39:05;;;;;;;4.93;3.42;;;5.10;47.00;;;;;;5065357;28;20478;-87
2021/03/09 08:41:37;;;;;;;5.60;3.78;;;5.80;47.30;;;;;;5062920;28;20025;-87
2021/03/09 08:44:14;;;;;;;4.28;3.33;;;6.90;46.90;;;;;;5065159;28;20783;-86
2021/03/09 08:47:09;;;;;;;5.35;3.35;;;8.20;45.70;;;;;;5064164;28;20044;-87
2021/03/09 08:52:07;;;;;;;7.85;3.90;;;10.40;44.00;;;;;;5062355;28;20463;-87
2021/03/09 08:54:37;;;;;;;7.78;3.83;;;11.60;41.80;;;;;;5062396;28;20020;-87
2021/03/09 08:57:08;;;;;;;5.40;3.75;;;12.40;40.60;;;;;;5062637;28;20028;-86
2021/03/09 08:59:35;;;;;;;9.18;3.72;;;13.40;39.40;;;;;;5058890;28;20053;-87
2021/03/09 09:02:05;;;;;;;5.15;3.38;;;14.60;37.90;;;;;;5065086;28;20028;-85
2021/03/09 09:04:31;;;;;;;4.03;3.17;;;15.50;35.80;;;;;;5063026;28;20375;-86
2021/03/09 09:06:57;;;;;;;4.22;3.20;;;16.40;34.90;;;;;;5058335;28;20024;-87
2021/03/09 09:09:36;;;;;;;9.40;3.72;;;17.30;34.10;;;;;;5062256;28;20029;-87
2021/03/09 09:12:32;;;;;;;3.60;3.30;;;18.20;32.20;;;;;;5067456;28;20020;-86
2021/03/09 09:15:19;;;;;;;3.35;3.05;;;19.10;30.80;;;;;;5060343;28;20352;-87
2021/03/09 09:17:52;;;;;;;5.22;4.15;;;19.70;29.60;;;;;;5064200;28;20025;-86
2021/03/09 09:20:22;;;;;;;5.28;3.90;;;20.20;29.30;;;;;;5061019;28;20017;-85
2021/03/09 09:22:51;;;;;;;4.13;3.15;;;20.50;28.80;;;;;;5059104;28;20017;-86
2021/03/09 09:25:17;;;;;;;7.03;3.90;;;20.90;28.40;;;;;;5053021;28;20103;-86
2021/03/09 09:27:48;;;;;;;5.25;3.53;;;21.30;28.00;;;;;;5053511;28;20040;-87
2021/03/09 09:30:34;;;;;;;4.45;3.53;;;21.70;27.30;;;;;;5054171;28;20021;-85
2021/03/09 09:33:00;;;;;;;4.80;3.88;;;22.20;26.80;;;;;;5054590;28;20113;-86
2021/03/09 09:35:29;;;;;;;8.10;4.20;;;22.50;26.60;;;;;;5054514;28;20367;-85
2021/03/09 09:37:58;;;;;;;4.78;3.90;;;22.70;26.10;;;;;;5053920;28;20017;-86
2021/03/09 09:40:28;;;;;;;3.58;2.85;;;23.10;25.90;;;;;;5053986;28;20025;-85
2021/03/09 09:43:00;;;;;;;4.57;3.42;;;23.60;25.60;;;;;;5053964;28;20104;-84
2021/03/09 09:45:27;;;;;;;3.28;2.95;;;24.10;25.00;;;;;;5054110;28;20354;-85
2021/03/09 09:47:55;;;;;;;8.48;3.50;;;24.00;24.50;;;;;;5055816;28;20029;-85
2021/03/09 09:50:22;;;;;;;4.85;3.45;;;22.80;24.20;;;;;;5053964;28;20056;-86
2021/03/09 09:52:54;;;;;;;4.00;3.60;;;21.50;24.30;;;;;;5053941;28;20120;-84
2021/03/09 09:55:25;;;;;;;4.20;3.20;;;19.90;24.50;;;;;;5053969;28;20151;-85
2021/03/09 09:57:53;;;;;;;4.60;3.45;;;18.30;24.90;;;;;;5053989;28;20028;-86
2021/03/09 10:00:24;;;;;;;4.63;3.75;;;16.90;25.50;;;;;;5052865;28;20021;-85
2021/03/09 10:03:15;;;;;;;4.05;3.33;;;15.60;26.10;;;;;;5053707;28;20036;-85
2021/03/09 10:05:43;;;;;;;8.45;3.58;;;14.30;26.50;;;;;;5054283;28;20072;-85
2021/03/09 10:08:10;;;;;;;7.28;3.50;;;13.30;27.00;;;;;;5054226;28;20025;-85
2021/03/09 10:10:36;;;;;;;4.22;3.33;;;12.40;27.30;;;;;;5053996;28;20067;-85
2021/03/09 10:13:22;;;;;;;4.40;4.00;;;11.60;27.80;;;;;;5053469;28;20049;-85
2021/03/09 10:15:48;;;;;;;;;;;10.90;28.30;;;;;;5054043;28;20065;-85
2021/03/09 10:18:31;;;;;;;7.22;4.18;;;10.40;28.60;;;;;;5053433;28;19954;-86
2021/03/09 10:21:13;;;;;;;5.10;3.95;;;10.10;29.00;;;;;;5052209;28;20025;-85
2021/03/09 10:23:52;;;;;;;7.43;3.88;;;9.80;29.30;;;;;;5056899;28;20027;-86
2021/03/09 10:26:41;;;;;;;6.95;3.83;;;9.80;29.60;;;;;;5056600;28;20523;-86
2021/03/09 10:29:06;;;;;;;6.07;4.90;;;9.80;29.80;;;;;;5056576;28;20435;-86
2021/03/09 10:31:50;;;;;;;6.53;3.70;;;10.10;30.00;;;;;;5057244;28;20025;-86
2021/03/09 10:34:33;;;;;;;4.07;3.42;;;10.40;30.00;;;;;;5057710;28;20036;-86
2021/03/09 10:37:01;;;;;;;4.85;3.55;;;10.70;29.90;;;;;;5057447;28;20032;-85
2021/03/09 10:39:28;;;;;;;5.18;3.20;;;11.00;29.80;;;;;;5056453;28;20045;-86
2021/03/09 10:41:54;;;;;;;5.13;3.63;;;11.00;29.60;;;;;;5055964;28;20017;-86
2021/03/09 10:44:31;;;;;;;5.20;3.35;;;10.80;29.50;;;;;;5055625;28;20027;-86
2021/03/09 10:46:59;;;;;;;6.75;3.47;;;10.70;29.70;;;;;;5057512;28;20336;-85
2021/03/09 10:49:25;;;;;;;4.63;3.85;;;10.70;29.80;;;;;;5057011;28;20028;-84
2021/03/09 10:51:58;;;;;;;12.57;6.03;;;10.50;29.90;;;;;;5055821;28;20542;-85
2021/03/09 10:54:23;;;;;;;6.90;3.70;;;10.20;30.00;;;;;;5056463;28;20378;-85
2021/03/09 10:56:49;;;;;;;6.10;3.85;;;9.70;30.20;;;;;;5057383;28;20029;-85
2021/03/09 10:59:15;;;;;;;4.35;3.67;;;9.40;30.70;;;;;;5056557;28;20071;-86
2021/03/09 11:01:41;;;;;;;12.43;3.95;;;9.20;31.00;;;;;;5058062;28;20028;-85
2021/03/09 11:04:06;;;;;;;8.13;4.30;;;9.10;31.30;;;;;;5057296;28;20510;-86
2021/03/09 11:06:32;;;;;;;5.15;3.35;;;9.10;31.60;;;;;;5056348;28;20124;-85
2021/03/09 11:08:58;;;;;;;5.03;3.67;;;9.30;31.70;;;;;;5056022;28;20064;-86
2021/03/09 11:11:24;;;;;;;5.47;4.00;;;9.40;31.70;;;;;;5056444;28;20028;-85
2021/03/09 11:13:50;;;;;;;7.68;4.10;;;9.50;31.60;;;;;;5056092;28;20049;-85
2021/03/09 11:16:16;;;;;;;4.75;3.95;;;9.50;31.70;;;;;;5056222;28;20050;-87
2021/03/09 11:18:43;;;;;;;4.75;3.63;;;9.60;31.60;;;;;;5056082;28;20055;-85
2021/03/09 11:21:09;;;;;;;4.18;3.67;;;9.50;31.60;;;;;;5055586;28;20044;-87
2021/03/09 11:23:35;;;;;;;5.72;3.60;;;9.30;31.70;;;;;;5055078;28;20029;-86
2021/03/09 11:26:01;;;;;;;9.02;4.28;;;9.10;32.20;;;;;;5056233;28;20025;-86
2021/03/09 11:28:26;;;;;;;5.43;3.90;;;9.00;32.90;;;;;;5056129;28;20024;-86
2021/03/09 11:30:52;;;;;;;5.00;4.03;;;8.90;33.50;;;;;;5055999;28;20013;-86
2021/03/09 11:33:18;;;;;;;6.30;3.97;;;8.90;33.70;;;;;;5055049;28;20017;-86
2021/03/09 11:35:43;;;;;;;7.35;4.55;;;8.80;33.70;;;;;;5055667;28;20025;-86
2021/03/09 11:38:09;;;;;;;8.45;4.70;;;8.60;34.00;;;;;;5055337;28;20043;-86
2021/03/09 11:40:35;;;;;;;9.20;4.93;;;8.40;34.10;;;;;;5055960;28;20439;-85
2021/03/09 11:43:02;;;;;;;7.65;4.57;;;8.20;34.10;;;;;;5055652;28;20028;-85
2021/03/09 11:45:28;;;;;;;5.95;4.15;;;7.90;34.40;;;;;;5055502;28;20386;-86
2021/03/09 11:47:53;;;;;;;10.27;5.30;;;7.70;34.60;;;;;;5055498;28;20021;-86
2021/03/09 11:50:19;;;;;;;5.45;3.47;;;7.40;34.80;;;;;;5055231;28;20020;-85
2021/03/09 11:52:45;;;;;;;7.25;4.90;;;7.30;35.20;;;;;;5055276;28;20025;-86
2021/03/09 11:55:12;;;;;;;12.20;5.80;;;7.20;35.50;;;;;;5056036;28;20075;-86
2021/03/09 11:57:38;;;;;;;7.65;4.40;;;7.20;36.00;;;;;;5055551;28;20027;-86
2021/03/09 12:00:08;;;;;;;5.50;4.07;;;7.20;36.40;;;;;;5061529;28;20021;-84
2021/03/09 12:02:33;;;;;;;8.02;4.60;;;7.30;36.60;;;;;;5061555;28;20074;-85
2021/03/09 12:04:59;;;;;;;8.10;4.00;;;7.30;36.70;;;;;;5056550;28;20029;-86
2021/03/09 12:07:25;;;;;;;5.18;3.65;;;7.50;37.00;;;;;;5054943;28;20032;-86
2021/03/09 12:09:51;;;;;;;5.03;3.50;;;8.50;37.40;;;;;;5055083;28;20021;-85
2021/03/09 12:12:17;;;;;;;8.93;4.22;;;9.50;36.50;;;;;;5055051;28;20474;-85
2021/03/09 12:14:42;;;;;;;6.40;4.28;;;10.10;35.30;;;;;;5054663;28;20017;-86
2021/03/09 12:17:08;;;;;;;4.28;3.28;;;10.30;34.30;;;;;;5054965;28;20029;-85
2021/03/09 12:19:34;;;;;;;11.75;4.05;;;10.60;33.90;;;;;;5055258;28;20029;-85
2021/03/09 12:22:00;;;;;;;4.82;3.90;;;10.80;33.50;;;;;;5054619;28;20036;-86
2021/03/09 12:24:26;;;;;;;4.38;3.83;;;10.90;33.20;;;;;;5054736;28;20029;-86
2021/03/09 12:26:51;;;;;;;7.72;4.00;;;11.10;33.00;;;;;;5055390;28;20036;-86
2021/03/09 12:29:18;;;;;;;7.18;4.10;;;11.30;32.60;;;;;;5053250;28;20055;-87
2021/03/09 12:31:44;;;;;;;5.55;4.30;;;11.00;32.00;;;;;;5054432;28;20103;-85
2021/03/09 12:34:10;;;;;;;27.30;10.15;;;10.40;31.80;;;;;;5054887;28;20108;-85
2021/03/09 12:36:36;;;;;;;4.28;3.80;;;10.00;32.30;;;;;;5057206;28;20025;-85
2021/03/09 12:39:02;;;;;;;7.78;4.28;;;9.80;32.50;;;;;;5054344;28;20029;-85
2021/03/09 12:41:28;;;;;;;4.35;3.85;;;9.60;32.70;;;;;;5052960;28;20354;-86
2021/03/09 12:43:54;;;;;;;6.28;4.35;;;9.30;32.80;;;;;;5052561;28;20021;-85
2021/03/09 12:46:19;;;;;;;5.40;4.05;;;9.10;33.10;;;;;;5053430;28;20112;-86
2021/03/09 12:48:45;;;;;;;11.25;4.82;;;9.60;33.90;;;;;;5054161;28;20021;-86
2021/03/09 12:51:11;;;;;;;6.50;4.00;;;10.60;33.90;;;;;;5054087;28;20067;-85
2021/03/09 12:53:37;;;;;;;4.05;3.40;;;11.80;33.40;;;;;;5054004;28;20021;-85
2021/03/09 12:56:04;;;;;;;7.18;3.70;;;12.80;32.70;;;;;;5036203;28;20372;-85
2021/03/09 12:58:30;;;;;;;6.63;3.55;;;14.20;32.10;;;;;;5054214;28;20087;-85
2021/03/09 13:00:56;;;;;;;5.50;4.20;;;15.50;31.10;;;;;;5053102;28;20025;-86